logo dgac
Miércoles 22 de Mayo del 2019
Buscar por aerodromo o helipuerto
Ingrese nombre de aeródromo, localidad o designador OACI:
TAF: TAF SCIP 220410Z 2206/2306 24008KT 9999 SCT020 TN18/2210Z TX23/2220Z TEMPO 2208/2218 18008KT 7000 -SHRA SCT015 BKN035 BECMG 2219/2221 18010KT BECMG 2302/2304 15004KT
TAF del 22/05/2019 a las 04:10 UTC
Período de validez: desde el 22 a las 06:00 UTC hasta el 23 a las 06:00 UTC
Viento: dirección 240 grados, velocidad 8 nudos
Visibilidad: 10 km o más
Nubes: Nubosidad parcial a 2000 pies sobre el nivel del aeródromo
Temperatura mínima: 18ºC el 22 a las 10:00 UTC
Temperatura máxima: 23ºC el 22 a las 20:00 UTC
Se espera en forma temporal entre las 08:00 UTC del 22 y las 18:00 UTC del 22:
Viento: dirección 180 grados, velocidad 8 nudos
Visibilidad: 7000 metros
Débil ChubascosLluvia
Nubes: Nubosidad parcial a 1500 pies sobre el nivel del aeródromo
Nubes: Nublado a 3500 pies sobre el nivel del aeródromo
Se espera un cambio entre las 19:00 UTC del 22 y las 21:00 UTC del 22, :
Viento: dirección 180 grados, velocidad 10 nudos
Se espera un cambio entre las 02:00 UTC del 23 y las 04:00 UTC del 23, :
Viento: dirección 150 grados, velocidad 4 nudos